TW-0026 weather

Taipei Grand Hyatt Hotel Helipad
Taipei, Taipei (municipality), Taiwan

Public forecast

Using degrees Celsius for public forecast. Weather courtesy of forecast.io.

Closest aviation weather report (METAR) to Taipei Grand Hyatt Hotel Helipad

Closest report is Taipei Songshan Airport, 2.1 nm (4.0 km) NNW. Retrieved 2020/02/20 01:30 UTC (14 minutes ago):

RCSS 200130Z 12003KT 080V150 9999 FEW030 BKN120 21/14 Q1027 NOSIG RMK A3033

Closest aviation forecast (TAF) to Taipei Grand Hyatt Hotel Helipad

Closest forecast is Taipei Songshan Airport, 2.1 nm (4.0 km) NNW. Retrieved 2020-02-20 00:00 UTC (2 hours ago):

TAF RCSS 192300Z 2000/2024 09012KT 9999 FEW016 BKN032 TEMPO 2000/2004 09005KT FEW012 BKN022 TEMPO 2004/2010 08018KT FEW010 BKN018 TEMPO 2017/2024 09007KT FEW008 BKN018